createdAt,value
2022-09-23T00:01:14.327Z,11.60
2022-09-23T00:03:43.176Z,11.60
2022-09-23T00:06:18.319Z,11.60
2022-09-23T00:08:45.433Z,11.60
2022-09-23T00:11:14.976Z,11.60
2022-09-23T00:13:44.105Z,11.60
2022-09-23T00:16:15.284Z,11.60
2022-09-23T00:18:43.093Z,11.50
2022-09-23T00:21:13.335Z,11.50
2022-09-23T00:23:41.615Z,11.50
2022-09-23T00:26:09.890Z,11.50
2022-09-23T00:28:36.753Z,11.50
2022-09-23T00:31:05.053Z,11.50
2022-09-23T00:33:32.553Z,11.50
2022-09-23T00:36:01.956Z,11.50
2022-09-23T00:38:29.249Z,11.50
2022-09-23T00:40:56.811Z,11.50
2022-09-23T00:43:48.162Z,11.50
2022-09-23T00:46:36.715Z,11.50
2022-09-23T00:49:08.977Z,11.50
2022-09-23T00:51:40.857Z,11.50
2022-09-23T00:54:07.980Z,11.50
2022-09-23T00:56:35.632Z,11.50
2022-09-23T00:59:03.414Z,11.50
2022-09-23T01:01:30.525Z,11.50
2022-09-23T01:03:58.428Z,11.60
2022-09-23T01:06:25.665Z,11.60
2022-09-23T01:08:53.067Z,11.50
2022-09-23T01:11:40.857Z,11.50
2022-09-23T01:14:13.412Z,11.50
2022-09-23T01:16:58.881Z,11.60
2022-09-23T01:20:02.876Z,11.50
2022-09-23T01:22:56.565Z,11.50
2022-09-23T01:25:57.825Z,11.50
2022-09-23T01:28:27.472Z,11.50
2022-09-23T01:31:00.189Z,11.60
2022-09-23T01:33:46.083Z,11.60
2022-09-23T01:36:36.119Z,11.60
2022-09-23T01:39:18.446Z,11.60
2022-09-23T01:42:06.948Z,11.60
2022-09-23T01:44:58.732Z,11.60
2022-09-23T01:47:30.938Z,11.60
2022-09-23T01:50:38.646Z,11.60
2022-09-23T01:53:32.932Z,11.60
2022-09-23T01:56:04.637Z,11.60
2022-09-23T01:59:01.187Z,11.60
2022-09-23T02:01:44.821Z,11.60
2022-09-23T02:04:39.467Z,11.60
2022-09-23T02:07:15.182Z,11.60
2022-09-23T02:09:47.223Z,11.60
2022-09-23T02:12:19.093Z,11.60
2022-09-23T02:14:53.885Z,11.60
2022-09-23T02:17:40.407Z,11.60
2022-09-23T02:20:07.753Z,11.50
2022-09-23T02:22:51.978Z,11.50
2022-09-23T02:25:21.773Z,11.50
2022-09-23T02:31:55.991Z,11.50
2022-09-23T02:38:32.634Z,11.50
2022-09-23T02:41:06.642Z,11.50
2022-09-23T02:43:42.487Z,11.50
2022-09-23T02:46:09.721Z,11.50
2022-09-23T02:48:41.636Z,11.50
2022-09-23T02:51:10.049Z,11.50
2022-09-23T02:53:37.306Z,11.60
2022-09-23T02:56:20.299Z,11.50
2022-09-23T02:58:52.966Z,11.50
2022-09-23T03:01:39.254Z,11.50
2022-09-23T03:04:18.231Z,11.50
2022-09-23T03:07:10.302Z,11.50
2022-09-23T03:09:50.698Z,11.50
2022-09-23T03:12:35.951Z,11.50
2022-09-23T03:15:18.236Z,11.50
2022-09-23T03:18:02.433Z,11.50
2022-09-23T03:20:34.710Z,11.50
2022-09-23T03:23:09.114Z,11.50
2022-09-23T03:25:39.750Z,11.60
2022-09-23T03:28:08.837Z,11.60
2022-09-23T03:30:36.878Z,11.50
2022-09-23T03:33:10.222Z,11.60
2022-09-23T03:36:01.898Z,11.50
2022-09-23T03:38:34.958Z,11.50
2022-09-23T03:41:04.166Z,11.50
2022-09-23T03:43:35.266Z,11.50
2022-09-23T03:46:08.758Z,11.40
2022-09-23T03:48:35.801Z,11.40
2022-09-23T03:51:22.716Z,11.40
2022-09-23T03:53:50.308Z,11.30
2022-09-23T03:56:18.602Z,11.30
2022-09-23T03:58:46.466Z,11.30
2022-09-23T04:01:14.746Z,11.30
2022-09-23T04:03:41.931Z,11.30
2022-09-23T04:06:09.073Z,11.30
2022-09-23T04:08:35.963Z,11.30
2022-09-23T04:11:04.683Z,11.30
2022-09-23T04:13:31.986Z,11.30
2022-09-23T04:15:59.001Z,11.30
2022-09-23T04:18:25.960Z,11.30
2022-09-23T04:20:57.474Z,11.20
2022-09-23T04:23:25.334Z,11.20
2022-09-23T04:25:52.061Z,11.10
2022-09-23T04:28:18.900Z,11.10
2022-09-23T04:30:46.262Z,11.10
2022-09-23T04:33:14.559Z,11.10
2022-09-23T04:35:43.868Z,11.10
2022-09-23T04:38:13.415Z,11.00
2022-09-23T04:40:40.568Z,11.10
2022-09-23T04:43:11.703Z,11.10
2022-09-23T04:45:40.355Z,11.10
2022-09-23T04:48:07.238Z,11.10
2022-09-23T04:50:34.052Z,11.10
2022-09-23T04:53:00.965Z,11.10
2022-09-23T04:55:27.858Z,11.10
2022-09-23T04:57:54.793Z,11.00
2022-09-23T05:00:23.284Z,11.10
2022-09-23T05:02:51.040Z,11.10
2022-09-23T05:05:22.277Z,11.10
2022-09-23T05:07:49.685Z,11.10
2022-09-23T05:10:16.886Z,11.10
2022-09-23T05:12:43.890Z,11.10
2022-09-23T05:15:10.900Z,11.00
2022-09-23T05:17:37.671Z,11.00
2022-09-23T05:20:05.254Z,11.00
2022-09-23T05:22:32.375Z,11.00
2022-09-23T05:25:00.293Z,11.00
2022-09-23T05:27:27.135Z,10.90
2022-09-23T05:29:54.072Z,10.90
2022-09-23T05:32:21.867Z,10.80
2022-09-23T05:34:48.744Z,10.90
2022-09-23T05:37:15.578Z,10.80
2022-09-23T05:39:42.317Z,10.80
2022-09-23T05:42:09.900Z,10.80
2022-09-23T05:44:36.674Z,10.80
2022-09-23T05:47:03.833Z,10.80
2022-09-23T05:49:55.192Z,10.80
2022-09-23T05:52:17.730Z,10.80
2022-09-23T05:54:44.545Z,10.80
2022-09-23T05:57:11.859Z,10.80
2022-09-23T05:59:38.689Z,10.90
2022-09-23T06:02:05.470Z,10.80
2022-09-23T06:04:32.274Z,10.80
2022-09-23T06:07:03.064Z,10.90
2022-09-23T06:09:35.599Z,10.90
2022-09-23T06:12:03.556Z,10.90
2022-09-23T06:14:30.223Z,10.90
2022-09-23T06:16:56.913Z,10.80
2022-09-23T06:19:23.608Z,11.00
2022-09-23T06:21:50.388Z,11.00
2022-09-23T06:24:21.126Z,11.00
2022-09-23T06:26:49.364Z,11.10
2022-09-23T06:29:16.324Z,11.00
2022-09-23T06:31:43.345Z,11.10
2022-09-23T06:34:13.436Z,11.10
2022-09-23T06:36:44.852Z,11.10
2022-09-23T06:39:12.862Z,11.20
2022-09-23T06:41:39.760Z,11.20
2022-09-23T06:44:06.684Z,11.30
2022-09-23T06:46:36.516Z,11.40
2022-09-23T06:49:03.947Z,11.40
2022-09-23T06:51:30.654Z,11.50
2022-09-23T06:53:57.378Z,11.60
2022-09-23T06:56:24.699Z,11.60
2022-09-23T06:58:52.252Z,11.70
2022-09-23T07:01:19.889Z,11.80
2022-09-23T07:03:48.453Z,12.00
2022-09-23T07:06:17.151Z,12.10
2022-09-23T07:08:46.861Z,12.20
2022-09-23T07:11:14.228Z,12.40
2022-09-23T07:13:42.296Z,12.40
2022-09-23T07:16:10.925Z,12.60
2022-09-23T07:18:38.869Z,12.70
2022-09-23T07:21:08.364Z,12.80
2022-09-23T07:23:35.135Z,12.90
2022-09-23T07:26:02.064Z,13.00
2022-09-23T07:28:29.162Z,13.10
2022-09-23T07:31:00.385Z,13.20
2022-09-23T07:33:33.101Z,13.30
2022-09-23T07:36:05.549Z,13.40
2022-09-23T07:38:32.616Z,13.40
2022-09-23T07:41:05.444Z,13.50
2022-09-23T07:43:32.928Z,13.60
2022-09-23T07:46:03.127Z,13.70
2022-09-23T07:48:34.380Z,13.80
2022-09-23T07:51:07.887Z,13.90
2022-09-23T07:53:34.634Z,14.00
2022-09-23T07:56:01.680Z,14.00
2022-09-23T07:58:28.430Z,14.10
2022-09-23T08:00:55.175Z,14.20
2022-09-23T08:03:21.954Z,14.30
2022-09-23T08:05:48.813Z,14.30
2022-09-23T08:08:15.702Z,14.40
2022-09-23T08:10:42.774Z,14.50
2022-09-23T08:13:09.900Z,14.50
2022-09-23T08:15:36.778Z,14.60
2022-09-23T08:18:04.197Z,14.60
2022-09-23T08:20:47.676Z,14.70
2022-09-23T08:23:16.746Z,14.70
2022-09-23T08:25:47.804Z,14.70
2022-09-23T08:28:16.747Z,14.80
2022-09-23T08:30:44.455Z,14.80
2022-09-23T08:33:12.300Z,14.90
2022-09-23T08:35:39.425Z,14.90
2022-09-23T08:38:07.168Z,15.00
2022-09-23T08:40:43.294Z,15.10
2022-09-23T08:43:34.773Z,15.10
2022-09-23T08:46:06.020Z,15.10
2022-09-23T08:48:37.514Z,15.20
2022-09-23T08:51:16.021Z,15.20
2022-09-23T08:53:43.848Z,15.20
2022-09-23T08:56:19.545Z,15.20
2022-09-23T08:58:58.411Z,15.20
2022-09-23T09:01:30.614Z,15.30
2022-09-23T09:04:14.276Z,15.30
2022-09-23T09:07:18.300Z,15.30
2022-09-23T09:10:21.267Z,15.30
2022-09-23T09:12:51.008Z,15.40
2022-09-23T09:15:25.158Z,15.40
2022-09-23T09:17:59.331Z,15.50
2022-09-23T09:20:29.553Z,15.40
2022-09-23T09:22:59.765Z,15.50
2022-09-23T09:25:45.630Z,15.50
2022-09-23T09:28:35.818Z,15.50
2022-09-23T09:31:31.734Z,15.60
2022-09-23T09:34:32.881Z,15.60
2022-09-23T09:37:07.428Z,15.70
2022-09-23T09:39:36.067Z,15.70
2022-09-23T09:42:04.457Z,15.80
2022-09-23T09:44:42.404Z,15.70
2022-09-23T09:47:28.694Z,15.70
2022-09-23T09:50:08.432Z,15.80
2022-09-23T09:52:44.305Z,15.90
2022-09-23T09:55:14.037Z,15.90
2022-09-23T09:57:56.158Z,16.00
2022-09-23T10:00:26.318Z,16.10
2022-09-23T10:03:14.769Z,16.10
2022-09-23T10:05:45.108Z,16.20
2022-09-23T10:08:24.587Z,16.30
2022-09-23T10:10:58.464Z,16.20
2022-09-23T10:13:27.302Z,16.30
2022-09-23T10:15:54.999Z,16.30
2022-09-23T10:51:48.576Z,17.20
2022-09-23T10:54:51.999Z,17.20
2022-09-23T10:57:37.974Z,17.10
2022-09-23T11:00:24.003Z,17.10
2022-09-23T11:03:09.407Z,17.10
2022-09-23T11:06:02.024Z,17.10
2022-09-23T11:08:40.782Z,17.30
2022-09-23T11:12:01.294Z,17.30
2022-09-23T11:14:32.291Z,17.30
2022-09-23T11:17:20.004Z,17.30
2022-09-23T11:20:25.975Z,17.40
2022-09-23T11:23:13.329Z,17.50
2022-09-23T11:26:01.377Z,17.50
2022-09-23T11:28:53.844Z,17.50
2022-09-23T11:31:24.089Z,17.50
2022-09-23T11:34:02.860Z,17.70
2022-09-23T11:36:34.048Z,17.80
2022-09-23T11:39:08.051Z,17.80
2022-09-23T11:41:38.877Z,17.90
2022-09-23T11:44:14.701Z,18.00
2022-09-23T11:46:46.819Z,18.10
2022-09-23T11:49:42.338Z,18.30
2022-09-23T11:52:25.163Z,18.40
2022-09-23T11:54:58.039Z,18.50
2022-09-23T11:57:43.046Z,18.80
2022-09-23T12:00:21.406Z,19.10
2022-09-23T12:03:00.534Z,19.20
2022-09-23T12:05:36.072Z,19.20
2022-09-23T12:08:29.426Z,19.20
2022-09-23T12:11:01.553Z,19.10
2022-09-23T12:13:42.815Z,19.10
2022-09-23T12:16:27.913Z,19.10
2022-09-23T12:19:18.858Z,19.00
2022-09-23T12:22:09.163Z,18.90
2022-09-23T12:24:47.800Z,18.80
2022-09-23T12:27:29.293Z,18.80
2022-09-23T12:30:00.943Z,18.80
2022-09-23T12:32:28.672Z,18.90
2022-09-23T12:34:56.010Z,19.00
2022-09-23T12:37:35.613Z,18.90
2022-09-23T12:40:09.496Z,19.00
2022-09-23T12:42:45.869Z,19.00
2022-09-23T12:45:34.985Z,19.00
2022-09-23T12:48:22.934Z,19.00
2022-09-23T12:50:52.820Z,19.00
2022-09-23T12:53:34.881Z,19.00
2022-09-23T12:56:45.082Z,19.00
2022-09-23T12:59:28.939Z,18.80
2022-09-23T13:01:56.825Z,18.70
2022-09-23T13:05:00.294Z,18.60
2022-09-23T13:07:32.169Z,18.50
2022-09-23T13:10:24.802Z,18.50
2022-09-23T13:12:53.068Z,18.50
2022-09-23T13:15:36.447Z,18.40
2022-09-23T13:18:21.172Z,18.30
2022-09-23T13:20:52.851Z,18.20
2022-09-23T13:23:25.867Z,18.20
2022-09-23T13:25:56.229Z,18.20
2022-09-23T13:28:43.579Z,18.10
2022-09-23T13:31:17.621Z,18.20
2022-09-23T13:33:51.565Z,18.20
2022-09-23T13:36:19.979Z,18.10
2022-09-23T13:38:47.131Z,18.10
2022-09-23T13:41:28.444Z,17.90
2022-09-23T13:44:00.538Z,17.90
2022-09-23T13:46:39.956Z,17.90
2022-09-23T13:49:19.312Z,17.80
2022-09-23T13:51:46.218Z,17.70
2022-09-23T13:54:30.124Z,17.80
2022-09-23T13:56:57.037Z,17.70
2022-09-23T13:59:38.026Z,17.70
2022-09-23T14:02:12.259Z,17.60
2022-09-23T14:04:39.677Z,17.60
2022-09-23T14:07:13.395Z,17.60
2022-09-23T14:09:52.231Z,17.50
2022-09-23T14:12:22.136Z,17.50
2022-09-23T14:14:51.675Z,17.40
2022-09-23T14:17:22.821Z,17.40
2022-09-23T14:19:50.894Z,17.40
2022-09-23T14:22:35.871Z,17.40
2022-09-23T14:25:03.395Z,17.50
2022-09-23T14:27:32.079Z,17.40
2022-09-23T14:30:00.451Z,17.40
2022-09-23T14:32:28.887Z,17.40
2022-09-23T14:35:04.616Z,17.40
2022-09-23T14:37:55.719Z,17.40
2022-09-23T14:40:25.101Z,17.30
2022-09-23T14:43:13.030Z,17.30
2022-09-23T14:45:40.969Z,17.30
2022-09-23T14:48:15.424Z,17.30
2022-09-23T14:50:51.296Z,17.30
2022-09-23T14:53:23.863Z,17.30
2022-09-23T14:56:14.700Z,17.20
2022-09-23T14:58:52.593Z,17.20
2022-09-23T15:01:32.228Z,17.20
2022-09-23T15:04:10.434Z,17.20
2022-09-23T15:06:48.409Z,17.10
2022-09-23T15:09:23.733Z,17.10
2022-09-23T15:11:57.952Z,17.10
2022-09-23T15:14:38.224Z,17.00
2022-09-23T15:17:13.344Z,17.10
2022-09-23T15:19:40.505Z,17.00
2022-09-23T15:22:08.543Z,17.00
2022-09-23T15:24:40.861Z,17.00
2022-09-23T15:27:27.258Z,16.90
2022-09-23T15:29:54.388Z,16.90
2022-09-23T15:32:22.130Z,16.90
2022-09-23T15:34:50.353Z,16.90
2022-09-23T15:37:17.712Z,16.80
2022-09-23T15:39:44.673Z,16.80
2022-09-23T15:42:11.834Z,16.80
2022-09-23T15:44:38.581Z,16.80
2022-09-23T15:47:05.513Z,16.80
2022-09-23T15:49:39.042Z,16.70
2022-09-23T15:52:09.767Z,16.70
2022-09-23T15:54:36.545Z,16.70
2022-09-23T15:57:03.426Z,16.70
2022-09-23T15:59:31.136Z,16.70
2022-09-23T16:02:01.120Z,16.70
2022-09-23T16:04:28.471Z,16.70
2022-09-23T16:06:55.129Z,16.60
2022-09-23T16:09:21.789Z,16.60
2022-09-23T16:11:50.327Z,16.60
2022-09-23T16:14:18.463Z,16.60
2022-09-23T16:16:47.696Z,16.50
2022-09-23T16:19:15.843Z,16.50
2022-09-23T16:21:43.220Z,16.50
2022-09-23T16:24:16.805Z,16.50
2022-09-23T16:26:45.193Z,16.50
2022-09-23T16:29:11.918Z,16.40
2022-09-23T16:31:39.207Z,16.40
2022-09-23T16:34:06.395Z,16.30
2022-09-23T16:36:35.193Z,16.40
2022-09-23T16:39:05.223Z,16.30
2022-09-23T16:41:32.474Z,16.30
2022-09-23T16:44:01.000Z,16.30
2022-09-23T16:46:29.431Z,16.30
2022-09-23T16:48:57.580Z,16.30
2022-09-23T16:51:30.054Z,16.20
2022-09-23T16:53:58.310Z,16.20
2022-09-23T16:56:28.943Z,16.20
2022-09-23T16:58:56.361Z,16.20
2022-09-23T17:01:47.070Z,16.10
2022-09-23T17:04:15.637Z,16.10
2022-09-23T17:06:48.956Z,16.10
2022-09-23T17:09:19.921Z,16.10
2022-09-23T17:11:52.943Z,16.00
2022-09-23T17:14:19.602Z,16.00
2022-09-23T17:16:46.706Z,16.00
2022-09-23T17:19:13.570Z,15.90
2022-09-23T17:21:40.342Z,15.90
2022-09-23T17:24:07.447Z,15.90
2022-09-23T17:26:34.779Z,15.80
2022-09-23T17:29:02.066Z,15.80
2022-09-23T17:31:29.102Z,15.80
2022-09-23T17:33:56.358Z,15.70
2022-09-23T17:36:23.056Z,15.70
2022-09-23T17:38:53.313Z,15.70
2022-09-23T17:41:20.345Z,15.60
2022-09-23T17:43:47.124Z,15.60
2022-09-23T17:46:18.159Z,15.60
2022-09-23T17:48:45.687Z,15.50
2022-09-23T17:51:16.655Z,15.50
2022-09-23T17:53:45.328Z,15.50
2022-09-23T17:56:21.549Z,15.50
2022-09-23T17:58:49.790Z,15.50
2022-09-23T18:01:22.399Z,15.50
2022-09-23T18:03:54.935Z,15.50
2022-09-23T18:06:23.747Z,15.40
2022-09-23T18:08:51.316Z,15.40
2022-09-23T18:11:22.930Z,15.40
2022-09-23T18:13:49.592Z,15.40
2022-09-23T18:16:17.162Z,15.40
2022-09-23T18:18:44.653Z,15.30
2022-09-23T18:21:11.451Z,15.30
2022-09-23T18:23:38.191Z,15.30
2022-09-23T18:26:12.590Z,15.30
2022-09-23T18:28:40.074Z,15.20
2022-09-23T18:31:06.750Z,15.20
2022-09-23T18:33:33.446Z,15.20
2022-09-23T18:36:01.062Z,15.20
2022-09-23T18:38:27.773Z,15.20
2022-09-23T18:40:57.667Z,15.20
2022-09-23T18:43:29.514Z,15.10
2022-09-23T18:46:01.659Z,15.10
2022-09-23T18:48:49.050Z,15.10
2022-09-23T18:51:17.354Z,15.00
2022-09-23T18:53:47.903Z,15.00
2022-09-23T18:56:17.142Z,15.00
2022-09-23T18:58:47.762Z,15.00
2022-09-23T19:01:15.702Z,14.90
2022-09-23T19:03:42.988Z,14.90
2022-09-23T19:06:19.274Z,14.90
2022-09-23T19:08:50.900Z,14.90
2022-09-23T19:11:17.947Z,14.90
2022-09-23T19:13:45.346Z,14.90
2022-09-23T19:16:16.721Z,14.90
2022-09-23T19:18:48.551Z,14.80
2022-09-23T19:21:17.169Z,14.80
2022-09-23T19:23:49.715Z,14.80
2022-09-23T19:26:19.186Z,14.80
2022-09-23T19:28:51.224Z,14.70
2022-09-23T19:31:22.940Z,14.80
2022-09-23T19:33:57.381Z,14.70
2022-09-23T19:36:35.142Z,14.70
2022-09-23T19:39:05.194Z,14.70
2022-09-23T19:41:33.473Z,14.70
2022-09-23T19:44:07.113Z,14.70
2022-09-23T19:46:36.945Z,14.70
2022-09-23T19:49:05.130Z,14.70
2022-09-23T19:51:34.082Z,14.60
2022-09-23T19:54:02.145Z,14.60
2022-09-23T19:56:30.624Z,14.60
2022-09-23T19:58:58.224Z,14.60
2022-09-23T20:01:27.373Z,14.50
2022-09-23T20:03:54.387Z,14.60
2022-09-23T20:06:21.794Z,14.50
2022-09-23T20:08:49.405Z,14.60
2022-09-23T20:11:23.675Z,14.60
2022-09-23T20:13:59.403Z,14.60
2022-09-23T20:16:28.684Z,14.60
2022-09-23T20:18:56.558Z,14.60
2022-09-23T20:21:23.491Z,14.50
2022-09-23T20:23:50.208Z,14.50
2022-09-23T20:26:35.666Z,14.50
2022-09-23T20:29:02.546Z,14.40
2022-09-23T20:31:29.639Z,14.40
2022-09-23T20:33:58.307Z,14.40
2022-09-23T20:36:26.897Z,14.40
2022-09-23T20:38:55.026Z,14.40
2022-09-23T20:41:21.859Z,14.40
2022-09-23T20:43:52.003Z,14.30
2022-09-23T20:46:18.746Z,14.40
2022-09-23T20:48:46.718Z,14.30
2022-09-23T20:51:13.370Z,14.30
2022-09-23T20:53:40.127Z,14.30
2022-09-23T20:56:06.774Z,14.30
2022-09-23T20:58:37.555Z,14.20
2022-09-23T21:01:05.737Z,14.30
2022-09-23T21:03:33.101Z,14.20
2022-09-23T21:06:04.270Z,14.20
2022-09-23T21:08:33.301Z,14.30
2022-09-23T21:11:02.501Z,14.20
2022-09-23T21:13:30.335Z,14.20
2022-09-23T21:16:11.253Z,14.30
2022-09-23T21:18:38.327Z,14.20
2022-09-23T21:21:06.349Z,14.30
2022-09-23T21:23:35.482Z,14.20
2022-09-23T21:26:20.276Z,14.20
2022-09-23T21:28:48.793Z,14.20
2022-09-23T21:31:25.579Z,14.20
2022-09-23T21:34:00.597Z,14.10
2022-09-23T21:36:33.261Z,14.10
2022-09-23T21:39:03.054Z,14.10
2022-09-23T21:41:30.117Z,14.10
2022-09-23T21:43:57.718Z,14.10
2022-09-23T21:46:26.379Z,14.10
2022-09-23T21:48:55.153Z,14.10
2022-09-23T21:51:27.392Z,14.10
2022-09-23T21:53:56.805Z,14.10
2022-09-23T21:56:32.876Z,14.10
2022-09-23T21:58:59.914Z,14.10
2022-09-23T22:01:35.172Z,14.10
2022-09-23T22:04:07.807Z,14.10
2022-09-23T22:06:37.967Z,14.10
2022-09-23T22:09:08.862Z,14.10
2022-09-23T22:11:55.007Z,14.10
2022-09-23T22:14:26.412Z,14.10
2022-09-23T22:16:58.952Z,14.10
2022-09-23T22:19:35.525Z,14.10
2022-09-23T22:22:07.599Z,14.10
2022-09-23T22:24:34.336Z,14.10
2022-09-23T22:27:01.063Z,14.10
2022-09-23T22:29:46.450Z,14.00
2022-09-23T22:32:31.635Z,14.10
2022-09-23T22:34:58.340Z,14.10
2022-09-23T22:37:35.082Z,14.00
2022-09-23T22:40:04.714Z,14.00
2022-09-23T22:42:31.606Z,14.00
2022-09-23T22:44:58.706Z,14.00
2022-09-23T22:47:25.844Z,14.00
2022-09-23T22:49:54.477Z,14.00
2022-09-23T22:52:24.725Z,14.00
2022-09-23T22:54:52.260Z,13.90
2022-09-23T22:57:19.648Z,14.00
2022-09-23T22:59:50.066Z,14.00
2022-09-23T23:02:18.565Z,14.00
2022-09-23T23:04:47.242Z,13.90
2022-09-23T23:07:14.830Z,13.90
2022-09-23T23:09:41.798Z,13.90
2022-09-23T23:12:08.611Z,13.90
2022-09-23T23:14:36.281Z,13.90
2022-09-23T23:17:07.193Z,13.90
2022-09-23T23:19:35.099Z,13.90
2022-09-23T23:22:02.079Z,13.90
2022-09-23T23:24:29.224Z,13.80
2022-09-23T23:26:56.041Z,13.90
2022-09-23T23:29:23.595Z,13.80
2022-09-23T23:31:51.146Z,13.90
2022-09-23T23:34:20.489Z,13.90
2022-09-23T23:36:54.589Z,13.90
2022-09-23T23:39:26.119Z,13.90
2022-09-23T23:41:54.924Z,13.90
2022-09-23T23:44:23.746Z,13.90
2022-09-23T23:46:50.821Z,14.00
2022-09-23T23:49:17.691Z,14.00
2022-09-23T23:51:44.967Z,14.00
2022-09-23T23:54:12.351Z,14.00
2022-09-23T23:56:39.057Z,14.00
2022-09-23T23:59:05.798Z,13.90
